sensor_id;sensor_type;location;lat;lon;timestamp;pressure;altitude;pressure_sealevel;temperature;humidity
68525;BME280;55524;51.380;13.372;2023-05-19T00:00:27;101532.91;;;9.13;76.13
68525;BME280;55524;51.380;13.372;2023-05-19T00:02:55;101530.25;;;9.13;77.00
68525;BME280;55524;51.380;13.372;2023-05-19T00:05:22;101525.84;;;9.14;76.58
68525;BME280;55524;51.380;13.372;2023-05-19T00:07:51;101524.16;;;9.11;76.94
68525;BME280;55524;51.380;13.372;2023-05-19T00:10:23;101530.34;;;9.08;78.20
68525;BME280;55524;51.380;13.372;2023-05-19T00:12:50;101528.56;;;9.09;78.25
68525;BME280;55524;51.380;13.372;2023-05-19T00:15:17;101526.81;;;9.06;77.78
68525;BME280;55524;51.380;13.372;2023-05-19T00:17:43;101514.59;;;9.04;77.43
68525;BME280;55524;51.380;13.372;2023-05-19T00:20:10;101518.13;;;9.03;78.12
68525;BME280;55524;51.380;13.372;2023-05-19T00:22:37;101516.34;;;9.03;77.62
68525;BME280;55524;51.380;13.372;2023-05-19T00:25:03;101522.47;;;9.07;77.85
68525;BME280;55524;51.380;13.372;2023-05-19T00:27:31;101513.69;;;9.05;77.27
68525;BME280;55524;51.380;13.372;2023-05-19T00:29:57;101505.84;;;9.00;76.97
68525;BME280;55524;51.380;13.372;2023-05-19T00:32:23;101510.34;;;8.91;78.21
68525;BME280;55524;51.380;13.372;2023-05-19T00:34:50;101512.97;;;8.91;78.81
68525;BME280;55524;51.380;13.372;2023-05-19T00:37:16;101513.00;;;8.89;79.32
68525;BME280;55524;51.380;13.372;2023-05-19T00:39:42;101511.28;;;8.88;79.30
68525;BME280;55524;51.380;13.372;2023-05-19T00:42:09;101508.63;;;8.86;79.46
68525;BME280;55524;51.380;13.372;2023-05-19T00:44:40;101504.28;;;8.87;79.11
68525;BME280;55524;51.380;13.372;2023-05-19T00:47:07;101506.06;;;8.83;79.29
68525;BME280;55524;51.380;13.372;2023-05-19T00:49:33;101497.22;;;8.86;79.41
68525;BME280;55524;51.380;13.372;2023-05-19T00:52:01;101504.31;;;8.84;79.59
68525;BME280;55524;51.380;13.372;2023-05-19T00:54:28;101499.94;;;8.83;80.22
68525;BME280;55524;51.380;13.372;2023-05-19T00:56:55;101501.69;;;8.81;80.28
68525;BME280;55524;51.380;13.372;2023-05-19T00:59:23;101493.72;;;8.87;79.47
68525;BME280;55524;51.380;13.372;2023-05-19T01:01:49;101490.28;;;8.79;80.41
68525;BME280;55524;51.380;13.372;2023-05-19T01:04:18;101488.53;;;8.81;79.59
68525;BME280;55524;51.380;13.372;2023-05-19T01:06:48;101482.31;;;8.85;78.75
68525;BME280;55524;51.380;13.372;2023-05-19T01:09:20;101489.41;;;8.80;79.89
68525;BME280;55524;51.380;13.372;2023-05-19T01:11:48;101485.91;;;8.78;79.22
68525;BME280;55524;51.380;13.372;2023-05-19T01:14:15;101483.16;;;8.89;78.84
68525;BME280;55524;51.380;13.372;2023-05-19T01:17:06;101488.56;;;8.79;78.98
68525;BME280;55524;51.380;13.372;2023-05-19T01:27:40;101492.16;;;8.72;79.59
68525;BME280;55524;51.380;13.372;2023-05-19T01:30:41;101490.34;;;8.76;79.32
68525;BME280;55524;51.380;13.372;2023-05-19T01:33:10;101498.38;;;8.65;80.25
68525;BME280;55524;51.380;13.372;2023-05-19T01:35:37;101497.50;;;8.65;79.89
68525;BME280;55524;51.380;13.372;2023-05-19T01:38:09;101498.44;;;8.60;80.08
68525;BME280;55524;51.380;13.372;2023-05-19T01:40:40;101500.16;;;8.65;79.68
68525;BME280;55524;51.380;13.372;2023-05-19T01:46:11;101512.59;;;8.50;80.98
68525;BME280;55524;51.380;13.372;2023-05-19T01:48:37;101512.72;;;8.41;81.31
68525;BME280;55524;51.380;13.372;2023-05-19T01:51:04;101515.38;;;8.36;81.81
68525;BME280;55524;51.380;13.372;2023-05-19T01:53:30;101511.03;;;8.32;82.07
68525;BME280;55524;51.380;13.372;2023-05-19T01:55:59;101510.16;;;8.32;81.89
68525;BME280;55524;51.380;13.372;2023-05-19T01:58:46;101506.66;;;8.30;81.91
68525;BME280;55524;51.380;13.372;2023-05-19T02:04:18;101505.78;;;8.29;82.05
68525;BME280;55524;51.380;13.372;2023-05-19T02:07:11;101504.91;;;8.29;82.43
68525;BME280;55524;51.380;13.372;2023-05-19T02:10:06;101502.22;;;8.33;82.30
68525;BME280;55524;51.380;13.372;2023-05-19T02:12:36;101502.28;;;8.29;82.40
68525;BME280;55524;51.380;13.372;2023-05-19T02:15:06;101498.72;;;8.37;81.81
68525;BME280;55524;51.380;13.372;2023-05-19T02:17:41;101491.72;;;8.30;81.65
68525;BME280;55524;51.380;13.372;2023-05-19T02:20:14;101509.38;;;8.24;82.68
68525;BME280;55524;51.380;13.372;2023-05-19T02:22:40;101499.72;;;8.24;83.11
68525;BME280;55524;51.380;13.372;2023-05-19T02:25:07;101501.41;;;8.27;82.55
68525;BME280;55524;51.380;13.372;2023-05-19T02:27:35;101494.44;;;8.24;82.87
68525;BME280;55524;51.380;13.372;2023-05-19T02:30:02;101491.84;;;8.21;83.20
68525;BME280;55524;51.380;13.372;2023-05-19T02:32:29;101485.69;;;8.21;82.65
68525;BME280;55524;51.380;13.372;2023-05-19T02:34:55;101490.06;;;8.22;82.84
68525;BME280;55524;51.380;13.372;2023-05-19T02:37:21;101493.66;;;8.11;83.49
68525;BME280;55524;51.380;13.372;2023-05-19T02:39:53;101497.19;;;8.10;83.29
68525;BME280;55524;51.380;13.372;2023-05-19T02:42:20;101501.63;;;8.08;83.19
68525;BME280;55524;51.380;13.372;2023-05-19T02:44:46;101499.03;;;8.04;83.25
68525;BME280;55524;51.380;13.372;2023-05-19T02:47:13;101494.66;;;8.01;83.53
68525;BME280;55524;51.380;13.372;2023-05-19T02:49:39;101493.78;;;8.04;83.54
68525;BME280;55524;51.380;13.372;2023-05-19T02:52:07;101493.81;;;8.01;83.50
68525;BME280;55524;51.380;13.372;2023-05-19T02:54:34;101502.59;;;7.98;83.80
68525;BME280;55524;51.380;13.372;2023-05-19T02:57:01;101498.22;;;7.97;83.60
68525;BME280;55524;51.380;13.372;2023-05-19T02:59:27;101496.50;;;7.92;84.03
68525;BME280;55524;51.380;13.372;2023-05-19T03:01:59;101489.50;;;7.92;83.83
68525;BME280;55524;51.380;13.372;2023-05-19T03:04:27;101483.34;;;7.92;83.48
68525;BME280;55524;51.380;13.372;2023-05-19T03:06:54;101481.69;;;7.84;84.26
68525;BME280;55524;51.380;13.372;2023-05-19T03:09:20;101482.56;;;7.82;84.10
68525;BME280;55524;51.380;13.372;2023-05-19T03:11:47;101480.88;;;7.75;84.39
68525;BME280;55524;51.380;13.372;2023-05-19T03:14:13;101478.28;;;7.73;84.41
68525;BME280;55524;51.380;13.372;2023-05-19T03:16:40;101480.97;;;7.62;84.98
68525;BME280;55524;51.380;13.372;2023-05-19T03:19:07;101481.84;;;7.63;84.91
68525;BME280;55524;51.380;13.372;2023-05-19T03:21:34;101481.94;;;7.51;85.14
68525;BME280;55524;51.380;13.372;2023-05-19T03:24:03;101488.09;;;7.48;85.22
68525;BME280;55524;51.380;13.372;2023-05-19T03:26:29;101486.38;;;7.44;85.52
68525;BME280;55524;51.380;13.372;2023-05-19T03:28:56;101490.88;;;7.33;86.28
68525;BME280;55524;51.380;13.372;2023-05-19T03:31:22;101486.53;;;7.26;86.84
68525;BME280;55524;51.380;13.372;2023-05-19T03:33:48;101490.94;;;7.22;87.44
68525;BME280;55524;51.380;13.372;2023-05-19T03:36:15;101492.66;;;7.23;87.55
68525;BME280;55524;51.380;13.372;2023-05-19T03:38:41;101497.94;;;7.22;87.44
68525;BME280;55524;51.380;13.372;2023-05-19T03:41:07;101501.41;;;7.27;86.85
68525;BME280;55524;51.380;13.372;2023-05-19T03:43:33;101502.34;;;7.21;86.94
68525;BME280;55524;51.380;13.372;2023-05-19T03:46:00;101498.84;;;7.21;87.55
68525;BME280;55524;51.380;13.372;2023-05-19T03:48:27;101502.31;;;7.23;87.72
68525;BME280;55524;51.380;13.372;2023-05-19T03:50:53;101500.59;;;7.22;87.58
68525;BME280;55524;51.380;13.372;2023-05-19T03:53:19;101505.84;;;7.19;87.40
68525;BME280;55524;51.380;13.372;2023-05-19T03:55:46;101501.41;;;7.30;87.27
68525;BME280;55524;51.380;13.372;2023-05-19T03:58:14;101504.06;;;7.22;86.54
68525;BME280;55524;51.380;13.372;2023-05-19T04:00:42;101504.97;;;7.21;87.59
68525;BME280;55524;51.380;13.372;2023-05-19T04:03:08;101504.09;;;7.21;87.93
68525;BME280;55524;51.380;13.372;2023-05-19T04:05:36;101501.47;;;7.18;87.58
68525;BME280;55524;51.380;13.372;2023-05-19T04:08:02;101497.03;;;7.26;86.99
68525;BME280;55524;51.380;13.372;2023-05-19T04:10:28;101502.34;;;7.21;86.91
68525;BME280;55524;51.380;13.372;2023-05-19T04:12:55;101508.47;;;7.19;87.41
68525;BME280;55524;51.380;13.372;2023-05-19T04:15:21;101509.38;;;7.14;87.73
68525;BME280;55524;51.380;13.372;2023-05-19T04:17:48;101505.91;;;7.11;87.61
68525;BME280;55524;51.380;13.372;2023-05-19T04:20:14;101514.66;;;7.11;88.48
68525;BME280;55524;51.380;13.372;2023-05-19T04:22:40;101516.44;;;7.09;88.76
68525;BME280;55524;51.380;13.372;2023-05-19T04:25:07;101503.25;;;7.12;88.86
68525;BME280;55524;51.380;13.372;2023-05-19T04:27:33;101511.13;;;7.17;89.50
68525;BME280;55524;51.380;13.372;2023-05-19T04:30:04;101510.19;;;7.29;88.60
68525;BME280;55524;51.380;13.372;2023-05-19T04:32:31;101508.47;;;7.19;89.18
68525;BME280;55524;51.380;13.372;2023-05-19T04:34:57;101509.34;;;7.19;88.84
68525;BME280;55524;51.380;13.372;2023-05-19T04:37:25;101512.84;;;7.20;89.72
68525;BME280;55524;51.380;13.372;2023-05-19T04:39:52;101516.34;;;7.25;89.99
68525;BME280;55524;51.380;13.372;2023-05-19T04:42:19;101521.63;;;7.19;89.92
68525;BME280;55524;51.380;13.372;2023-05-19T04:44:45;101522.47;;;7.22;89.55
68525;BME280;55524;51.380;13.372;2023-05-19T04:47:14;101518.97;;;7.23;89.74
68525;BME280;55524;51.380;13.372;2023-05-19T04:49:40;101525.09;;;7.25;89.73
68525;BME280;55524;51.380;13.372;2023-05-19T04:52:09;101522.47;;;7.24;89.32
68525;BME280;55524;51.380;13.372;2023-05-19T04:54:37;101522.41;;;7.34;89.26
68525;BME280;55524;51.380;13.372;2023-05-19T04:57:04;101526.72;;;7.43;88.74
68525;BME280;55524;51.380;13.372;2023-05-19T04:59:30;101519.63;;;7.54;88.35
68525;BME280;55524;51.380;13.372;2023-05-19T05:01:57;101516.97;;;7.56;88.75
68525;BME280;55524;51.380;13.372;2023-05-19T05:04:23;101505.56;;;7.61;87.99
68525;BME280;55524;51.380;13.372;2023-05-19T05:06:50;101508.09;;;7.72;87.43
68525;BME280;55524;51.380;13.372;2023-05-19T05:09:17;101524.75;;;7.71;87.83
68525;BME280;55524;51.380;13.372;2023-05-19T05:11:45;101516.81;;;7.76;87.45
68525;BME280;55524;51.380;13.372;2023-05-19T05:14:11;101519.38;;;7.85;87.22
68525;BME280;55524;51.380;13.372;2023-05-19T05:16:38;101518.41;;;7.95;86.82
68525;BME280;55524;51.380;13.372;2023-05-19T05:19:04;101507.81;;;8.04;86.39
68525;BME280;55524;51.380;13.372;2023-05-19T05:21:31;101508.53;;;8.20;85.71
68525;BME280;55524;51.380;13.372;2023-05-19T05:23:58;101506.66;;;8.30;85.25
68525;BME280;55524;51.380;13.372;2023-05-19T05:26:29;101510.09;;;8.41;85.39
68525;BME280;55524;51.380;13.372;2023-05-19T05:28:55;101513.44;;;8.54;85.71
68525;BME280;55524;51.380;13.372;2023-05-19T05:31:22;101513.28;;;8.68;85.31
68525;BME280;55524;51.380;13.372;2023-05-19T05:33:48;101514.94;;;8.76;85.05
68525;BME280;55524;51.380;13.372;2023-05-19T05:36:14;101512.03;;;8.96;84.09
68525;BME280;55524;51.380;13.372;2023-05-19T05:38:41;101517.97;;;9.10;83.63
68525;BME280;55524;51.380;13.372;2023-05-19T05:41:07;101509.94;;;9.21;83.50
68525;BME280;55524;51.380;13.372;2023-05-19T05:43:33;101514.88;;;9.44;83.19
68525;BME280;55524;51.380;13.372;2023-05-19T05:46:00;101512.00;;;9.59;82.21
68525;BME280;55524;51.380;13.372;2023-05-19T05:48:27;101502.97;;;9.73;80.61
68525;BME280;55524;51.380;13.372;2023-05-19T05:50:53;101509.88;;;9.80;79.96
68525;BME280;55524;51.380;13.372;2023-05-19T05:53:21;101498.91;;;10.04;79.68
68525;BME280;55524;51.380;13.372;2023-05-19T05:55:50;101498.00;;;10.05;79.63
68525;BME280;55524;51.380;13.372;2023-05-19T05:58:16;101499.75;;;10.06;79.48
68525;BME280;55524;51.380;13.372;2023-05-19T06:00:43;101501.06;;;10.32;79.50
68525;BME280;55524;51.380;13.372;2023-05-19T06:03:10;101492.00;;;10.45;79.15
68525;BME280;55524;51.380;13.372;2023-05-19T06:05:37;101491.81;;;10.54;78.61
68525;BME280;55524;51.380;13.372;2023-05-19T06:08:04;101476.53;;;10.69;77.62
68525;BME280;55524;51.380;13.372;2023-05-19T06:10:31;101480.78;;;10.76;77.63
68525;BME280;55524;51.380;13.372;2023-05-19T06:12:57;101476.25;;;10.82;76.14
68525;BME280;55524;51.380;13.372;2023-05-19T06:15:24;101489.28;;;10.50;78.57
68525;BME280;55524;51.380;13.372;2023-05-19T06:17:51;101486.88;;;10.81;77.55
68525;BME280;55524;51.380;13.372;2023-05-19T06:20:17;101475.91;;;10.98;76.91
68525;BME280;55524;51.380;13.372;2023-05-19T06:22:45;101478.13;;;11.16;75.82
68525;BME280;55524;51.380;13.372;2023-05-19T06:25:11;101470.06;;;11.22;75.63
68525;BME280;55524;51.380;13.372;2023-05-19T06:27:37;101468.09;;;11.30;75.62
68525;BME280;55524;51.380;13.372;2023-05-19T06:30:04;101468.03;;;11.33;75.63
68525;BME280;55524;51.380;13.372;2023-05-19T06:32:33;101462.56;;;11.40;75.67
68525;BME280;55524;51.380;13.372;2023-05-19T06:34:59;101471.44;;;11.00;74.86
68525;BME280;55524;51.380;13.372;2023-05-19T06:37:26;101467.19;;;11.31;74.63
68525;BME280;55524;51.380;13.372;2023-05-19T06:39:53;101480.03;;;11.48;75.92
68525;BME280;55524;51.380;13.372;2023-05-19T06:42:20;101475.22;;;11.64;75.63
68525;BME280;55524;51.380;13.372;2023-05-19T06:44:51;101475.63;;;11.85;75.46
68525;BME280;55524;51.380;13.372;2023-05-19T06:47:18;101466.56;;;11.92;74.35
68525;BME280;55524;51.380;13.372;2023-05-19T06:49:46;101467.81;;;12.11;74.30
68525;BME280;55524;51.380;13.372;2023-05-19T06:52:16;101465.50;;;11.99;72.72
68525;BME280;55524;51.380;13.372;2023-05-19T06:54:42;101480.78;;;11.89;73.82
68525;BME280;55524;51.380;13.372;2023-05-19T06:57:09;101477.44;;;12.48;73.75
68525;BME280;55524;51.380;13.372;2023-05-19T06:59:35;101478.88;;;11.94;72.80
68525;BME280;55524;51.380;13.372;2023-05-19T07:02:03;101491.97;;;12.33;73.36
68525;BME280;55524;51.380;13.372;2023-05-19T07:04:29;101478.38;;;12.45;73.26
68525;BME280;55524;51.380;13.372;2023-05-19T07:06:56;101475.38;;;12.58;72.92
68525;BME280;55524;51.380;13.372;2023-05-19T07:09:22;101465.88;;;12.80;72.63
68525;BME280;55524;51.380;13.372;2023-05-19T07:11:48;101467.75;;;12.14;73.54
68525;BME280;55524;51.380;13.372;2023-05-19T07:14:15;101455.66;;;12.96;72.33
68525;BME280;55524;51.380;13.372;2023-05-19T07:16:42;101441.28;;;12.75;70.80
68525;BME280;55524;51.380;13.372;2023-05-19T07:19:08;101446.59;;;13.03;70.92
68525;BME280;55524;51.380;13.372;2023-05-19T07:21:35;101447.56;;;13.00;71.61
68525;BME280;55524;51.380;13.372;2023-05-19T07:24:01;101449.66;;;12.89;71.25
68525;BME280;55524;51.380;13.372;2023-05-19T07:26:28;101442.34;;;13.25;70.51
68525;BME280;55524;51.380;13.372;2023-05-19T07:28:55;101436.72;;;13.36;70.34
68525;BME280;55524;51.380;13.372;2023-05-19T07:31:22;101444.84;;;13.32;71.00
68525;BME280;55524;51.380;13.372;2023-05-19T07:33:49;101433.66;;;13.48;70.45
68525;BME280;55524;51.380;13.372;2023-05-19T07:36:15;101436.09;;;13.55;70.50
68525;BME280;55524;51.380;13.372;2023-05-19T07:38:42;101414.59;;;13.87;69.12
68525;BME280;55524;51.380;13.372;2023-05-19T07:41:09;101431.25;;;13.13;70.44
68525;BME280;55524;51.380;13.372;2023-05-19T07:43:36;101427.72;;;13.67;70.06
68525;BME280;55524;51.380;13.372;2023-05-19T07:46:02;101412.22;;;13.80;69.26
68525;BME280;55524;51.380;13.372;2023-05-19T07:48:29;101414.75;;;14.08;69.13
68525;BME280;55524;51.380;13.372;2023-05-19T07:50:55;101398.19;;;14.24;68.38
68525;BME280;55524;51.380;13.372;2023-05-19T07:53:21;101383.00;;;14.51;67.27
68525;BME280;55524;51.380;13.372;2023-05-19T07:55:48;101404.91;;;14.35;68.66
68525;BME280;55524;51.380;13.372;2023-05-19T07:58:15;101389.63;;;14.40;68.28
68525;BME280;55524;51.380;13.372;2023-05-19T08:00:42;101402.88;;;14.65;67.89
68525;BME280;55524;51.380;13.372;2023-05-19T08:03:12;101390.63;;;14.61;66.98
68525;BME280;55524;51.380;13.372;2023-05-19T08:05:38;101377.19;;;14.40;66.65
68525;BME280;55524;51.380;13.372;2023-05-19T08:08:05;101380.25;;;14.55;66.36
68525;BME280;55524;51.380;13.372;2023-05-19T08:10:32;101369.25;;;15.28;65.14
68525;BME280;55524;51.380;13.372;2023-05-19T08:12:58;101351.22;;;15.77;63.58
68525;BME280;55524;51.380;13.372;2023-05-19T08:15:24;101345.03;;;16.16;62.67
68525;BME280;55524;51.380;13.372;2023-05-19T08:17:51;101340.25;;;16.04;61.36
68525;BME280;55524;51.380;13.372;2023-05-19T08:20:17;101331.25;;;16.25;60.42
68525;BME280;55524;51.380;13.372;2023-05-19T08:22:44;101318.97;;;16.59;59.35
68525;BME280;55524;51.380;13.372;2023-05-19T08:25:10;101316.81;;;16.67;58.26
68525;BME280;55524;51.380;13.372;2023-05-19T08:27:37;101314.50;;;16.78;57.78
68525;BME280;55524;51.380;13.372;2023-05-19T08:30:03;101316.03;;;16.08;58.89
68525;BME280;55524;51.380;13.372;2023-05-19T08:32:30;101304.75;;;16.77;57.94
68525;BME280;55524;51.380;13.372;2023-05-19T08:34:56;101293.72;;;17.02;57.96
68525;BME280;55524;51.380;13.372;2023-05-19T08:37:22;101273.09;;;17.56;56.70
68525;BME280;55524;51.380;13.372;2023-05-19T08:39:49;101277.38;;;17.26;56.80
68525;BME280;55524;51.380;13.372;2023-05-19T08:42:15;101274.63;;;17.27;56.79
68525;BME280;55524;51.380;13.372;2023-05-19T08:44:41;101283.03;;;17.02;56.93
68525;BME280;55524;51.380;13.372;2023-05-19T08:47:08;101289.78;;;16.18;58.16
68525;BME280;55524;51.380;13.372;2023-05-19T08:49:44;101291.97;;;16.65;57.90
68525;BME280;55524;51.380;13.372;2023-05-19T08:55:10;101247.38;;;17.03;53.78
68525;BME280;55524;51.380;13.372;2023-05-19T08:57:38;101250.34;;;17.32;52.89
68525;BME280;55524;51.380;13.372;2023-05-19T09:00:06;101249.00;;;17.40;52.55
68525;BME280;55524;51.380;13.372;2023-05-19T09:02:39;101248.47;;;17.16;52.59
68525;BME280;55524;51.380;13.372;2023-05-19T09:05:06;101246.78;;;17.49;52.48
68525;BME280;55524;51.380;13.372;2023-05-19T09:07:35;101236.56;;;17.73;52.38
68525;BME280;55524;51.380;13.372;2023-05-19T09:10:03;101235.94;;;18.01;52.34
68525;BME280;55524;51.380;13.372;2023-05-19T09:12:30;101222.88;;;17.45;51.80
68525;BME280;55524;51.380;13.372;2023-05-19T09:14:59;101215.16;;;17.57;51.00
68525;BME280;55524;51.380;13.372;2023-05-19T09:17:26;101224.53;;;17.15;52.31
68525;BME280;55524;51.380;13.372;2023-05-19T09:19:52;101212.47;;;17.57;51.29
68525;BME280;55524;51.380;13.372;2023-05-19T09:22:18;101200.56;;;17.47;49.80
68525;BME280;55524;51.380;13.372;2023-05-19T09:24:46;101214.75;;;17.14;50.56
68525;BME280;55524;51.380;13.372;2023-05-19T09:27:21;101198.75;;;17.96;49.52
68525;BME280;55524;51.380;13.372;2023-05-19T09:29:48;101192.66;;;17.61;49.29
68525;BME280;55524;51.380;13.372;2023-05-19T09:32:24;101222.06;;;17.28;50.64
68525;BME280;55524;51.380;13.372;2023-05-19T09:34:53;101221.91;;;17.31;50.85
68525;BME280;55524;51.380;13.372;2023-05-19T09:37:22;101219.28;;;17.29;50.76
68525;BME280;55524;51.380;13.372;2023-05-19T09:39:49;101225.59;;;18.26;50.29
68525;BME280;55524;51.380;13.372;2023-05-19T09:42:24;101212.59;;;17.71;49.12
68525;BME280;55524;51.380;13.372;2023-05-19T09:45:02;101210.63;;;17.41;49.61
68525;BME280;55524;51.380;13.372;2023-05-19T09:47:39;101221.69;;;17.84;50.72
68525;BME280;55524;51.380;13.372;2023-05-19T09:50:10;101216.41;;;17.50;51.58
68525;BME280;55524;51.380;13.372;2023-05-19T09:52:42;101213.34;;;17.75;50.39
68525;BME280;55524;51.380;13.372;2023-05-19T09:55:11;101219.56;;;18.38;50.52
68525;BME280;55524;51.380;13.372;2023-05-19T09:57:38;101192.06;;;18.51;48.56
68525;BME280;55524;51.380;13.372;2023-05-19T10:00:06;101165.22;;;18.82;47.75
68525;BME280;55524;51.380;13.372;2023-05-19T10:02:44;101172.25;;;18.99;48.28
68525;BME280;55524;51.380;13.372;2023-05-19T10:05:13;101172.66;;;19.36;48.24
68525;BME280;55524;51.380;13.372;2023-05-19T10:07:42;101167.47;;;19.47;47.37
68525;BME280;55524;51.380;13.372;2023-05-19T10:10:11;101157.53;;;19.35;46.95
68525;BME280;55524;51.380;13.372;2023-05-19T10:12:39;101148.78;;;18.58;47.06
68525;BME280;55524;51.380;13.372;2023-05-19T10:15:11;101154.44;;;18.98;46.75
68525;BME280;55524;51.380;13.372;2023-05-19T10:17:38;101151.31;;;19.34;46.60
68525;BME280;55524;51.380;13.372;2023-05-19T10:20:10;101154.22;;;18.57;47.32
68525;BME280;55524;51.380;13.372;2023-05-19T10:22:41;101163.75;;;18.77;47.29
68525;BME280;55524;51.380;13.372;2023-05-19T10:25:09;101163.16;;;19.16;47.87
68525;BME280;55524;51.380;13.372;2023-05-19T10:27:42;101159.72;;;18.70;48.44
68525;BME280;55524;51.380;13.372;2023-05-19T10:30:32;101148.69;;;19.04;47.52
68525;BME280;55524;51.380;13.372;2023-05-19T10:33:00;101157.25;;;19.25;48.00
68525;BME280;55524;51.380;13.372;2023-05-19T10:41:07;101146.25;;;18.71;46.72
68525;BME280;55524;51.380;13.372;2023-05-19T10:43:49;101146.50;;;19.39;47.01
68525;BME280;55524;51.380;13.372;2023-05-19T10:46:23;101155.66;;;18.78;48.78
68525;BME280;55524;51.380;13.372;2023-05-19T10:48:51;101154.72;;;19.08;48.35
68525;BME280;55524;51.380;13.372;2023-05-19T10:51:17;101160.38;;;18.43;48.55
68525;BME280;55524;51.380;13.372;2023-05-19T10:53:43;101166.34;;;17.69;49.95
68525;BME280;55524;51.380;13.372;2023-05-19T10:58:56;101164.28;;;18.83;48.53
68525;BME280;55524;51.380;13.372;2023-05-19T11:01:22;101165.94;;;19.14;48.74
68525;BME280;55524;51.380;13.372;2023-05-19T11:03:55;101158.34;;;18.92;48.61
68525;BME280;55524;51.380;13.372;2023-05-19T11:06:37;101159.38;;;18.76;48.79
68525;BME280;55524;51.380;13.372;2023-05-19T11:09:19;101174.00;;;18.70;49.15
68525;BME280;55524;51.380;13.372;2023-05-19T11:11:49;101177.78;;;18.20;49.91
68525;BME280;55524;51.380;13.372;2023-05-19T11:14:26;101182.88;;;18.09;49.85
68525;BME280;55524;51.380;13.372;2023-05-19T11:16:56;101189.28;;;18.52;50.14
68525;BME280;55524;51.380;13.372;2023-05-19T11:19:34;101182.88;;;17.77;50.15
68525;BME280;55524;51.380;13.372;2023-05-19T11:22:08;101196.19;;;17.94;51.12
68525;BME280;55524;51.380;13.372;2023-05-19T11:24:43;101186.31;;;18.27;51.15
68525;BME280;55524;51.380;13.372;2023-05-19T11:29:43;101178.63;;;18.21;50.73
68525;BME280;55524;51.380;13.372;2023-05-19T11:32:11;101180.38;;;18.22;50.31
68525;BME280;55524;51.380;13.372;2023-05-19T11:34:37;101181.81;;;18.89;50.88
68525;BME280;55524;51.380;13.372;2023-05-19T11:37:05;101173.63;;;18.30;50.07
68525;BME280;55524;51.380;13.372;2023-05-19T11:39:32;101179.88;;;18.15;50.98
68525;BME280;55524;51.380;13.372;2023-05-19T11:41:58;101181.56;;;18.32;51.18
68525;BME280;55524;51.380;13.372;2023-05-19T11:44:25;101152.13;;;18.92;48.33
68525;BME280;55524;51.380;13.372;2023-05-19T11:46:51;101154.91;;;18.90;49.57
68525;BME280;55524;51.380;13.372;2023-05-19T11:49:18;101144.66;;;18.83;48.93
68525;BME280;55524;51.380;13.372;2023-05-19T11:51:45;101171.41;;;18.53;50.60
68525;BME280;55524;51.380;13.372;2023-05-19T11:54:12;101169.81;;;18.34;50.29
68525;BME280;55524;51.380;13.372;2023-05-19T11:56:42;101159.03;;;18.66;50.09
68525;BME280;55524;51.380;13.372;2023-05-19T11:59:08;101171.16;;;18.57;51.11
68525;BME280;55524;51.380;13.372;2023-05-19T12:01:35;101175.97;;;18.21;50.61
68525;BME280;55524;51.380;13.372;2023-05-19T12:04:06;101169.66;;;18.37;50.80
68525;BME280;55524;51.380;13.372;2023-05-19T12:06:33;101176.81;;;18.83;51.21
68525;BME280;55524;51.380;13.372;2023-05-19T12:08:59;101159.69;;;19.00;48.89
68525;BME280;55524;51.380;13.372;2023-05-19T12:11:28;101180.56;;;17.87;51.42
68525;BME280;55524;51.380;13.372;2023-05-19T12:14:01;101181.38;;;18.51;51.07
68525;BME280;55524;51.380;13.372;2023-05-19T12:16:34;101177.56;;;18.55;49.83
68525;BME280;55524;51.380;13.372;2023-05-19T12:19:03;101171.91;;;18.59;50.21
68525;BME280;55524;51.380;13.372;2023-05-19T12:21:31;101172.88;;;18.74;49.86
68525;BME280;55524;51.380;13.372;2023-05-19T12:23:59;101177.22;;;18.45;50.19
68525;BME280;55524;51.380;13.372;2023-05-19T12:26:25;101165.47;;;19.22;49.02
68525;BME280;55524;51.380;13.372;2023-05-19T12:28:52;101168.91;;;19.24;49.34
68525;BME280;55524;51.380;13.372;2023-05-19T12:31:20;101175.84;;;18.84;50.68
68525;BME280;55524;51.380;13.372;2023-05-19T12:33:48;101176.63;;;18.40;50.60
68525;BME280;55524;51.380;13.372;2023-05-19T12:36:18;101203.88;;;17.67;52.62
68525;BME280;55524;51.380;13.372;2023-05-19T12:38:47;101196.94;;;17.97;51.87
68525;BME280;55524;51.380;13.372;2023-05-19T12:41:18;101204.91;;;17.98;52.33
68525;BME280;55524;51.380;13.372;2023-05-19T12:43:45;101189.09;;;17.93;52.23
68525;BME280;55524;51.380;13.372;2023-05-19T12:46:12;101203.34;;;17.61;52.98
68525;BME280;55524;51.380;13.372;2023-05-19T12:48:45;101216.03;;;17.73;53.78
68525;BME280;55524;51.380;13.372;2023-05-19T12:51:19;101198.59;;;17.99;52.40
68525;BME280;55524;51.380;13.372;2023-05-19T12:53:46;101205.53;;;17.70;52.71
68525;BME280;55524;51.380;13.372;2023-05-19T12:56:13;101206.34;;;18.04;53.07
68525;BME280;55524;51.380;13.372;2023-05-19T12:58:43;101193.66;;;17.91;51.95
68525;BME280;55524;51.380;13.372;2023-05-19T13:01:17;101206.09;;;17.92;52.48
68525;BME280;55524;51.380;13.372;2023-05-19T13:03:44;101203.84;;;17.52;52.79
68525;BME280;55524;51.380;13.372;2023-05-19T13:06:11;101213.84;;;17.15;53.23
68525;BME280;55524;51.380;13.372;2023-05-19T13:08:38;101210.94;;;17.68;53.23
68525;BME280;55524;51.380;13.372;2023-05-19T13:11:05;101204.84;;;17.66;52.43
68525;BME280;55524;51.380;13.372;2023-05-19T13:13:31;101199.78;;;17.93;53.17
68525;BME280;55524;51.380;13.372;2023-05-19T13:15:58;101190.03;;;17.92;52.10
68525;BME280;55524;51.380;13.372;2023-05-19T13:18:25;101188.25;;;17.60;52.46